createdAt,value
2017-12-02T00:02:15.991Z,78.80
2017-12-02T00:04:43.454Z,78.70
2017-12-02T00:07:10.918Z,78.80
2017-12-02T00:09:38.385Z,78.90
2017-12-02T00:12:05.844Z,78.90
2017-12-02T00:14:33.302Z,78.90
2017-12-02T00:17:00.769Z,78.70
2017-12-02T00:19:28.229Z,78.60
2017-12-02T00:21:55.700Z,78.90
2017-12-02T00:24:23.147Z,79.10
2017-12-02T00:26:50.613Z,79.20
2017-12-02T00:29:18.067Z,79.30
2017-12-02T00:31:45.544Z,79.00
2017-12-02T00:34:13.020Z,79.10
2017-12-02T00:36:41.247Z,79.20
2017-12-02T00:39:08.709Z,79.20
2017-12-02T00:41:36.170Z,79.20
2017-12-02T00:44:03.628Z,79.10
2017-12-02T00:46:31.106Z,79.20
2017-12-02T00:48:58.562Z,79.20
2017-12-02T00:51:26.791Z,79.50
2017-12-02T00:53:55.011Z,79.20
2017-12-02T00:56:22.485Z,79.10
2017-12-02T00:58:49.960Z,79.20
2017-12-02T01:01:17.427Z,79.20
2017-12-02T01:03:44.890Z,79.10
2017-12-02T01:06:12.381Z,78.90
2017-12-02T01:08:40.660Z,78.80
2017-12-02T01:11:08.885Z,78.70
2017-12-02T01:13:36.363Z,78.60
2017-12-02T01:16:03.828Z,78.80
2017-12-02T01:18:31.304Z,78.90
2017-12-02T01:20:58.832Z,78.90
2017-12-02T01:23:26.286Z,79.10
2017-12-02T01:25:53.743Z,78.90
2017-12-02T01:28:21.207Z,78.90
2017-12-02T01:30:48.672Z,78.90
2017-12-02T01:33:16.910Z,79.10
2017-12-02T01:35:44.409Z,79.10
2017-12-02T01:38:11.850Z,79.10
2017-12-02T01:40:40.085Z,79.10
2017-12-02T01:43:07.537Z,79.10
2017-12-02T01:45:35.004Z,79.00
2017-12-02T01:48:02.471Z,79.00
2017-12-02T01:50:29.941Z,79.20
2017-12-02T01:52:57.411Z,79.10
2017-12-02T01:55:24.863Z,78.90
2017-12-02T01:57:52.331Z,79.10
2017-12-02T02:00:19.780Z,79.20
2017-12-02T02:02:47.238Z,78.90
2017-12-02T02:05:14.684Z,79.00
2017-12-02T02:07:42.157Z,78.90
2017-12-02T02:10:09.613Z,78.90
2017-12-02T02:12:37.085Z,78.90
2017-12-02T02:15:04.538Z,78.70
2017-12-02T02:17:32.008Z,78.70
2017-12-02T02:19:59.474Z,78.80
2017-12-02T02:22:26.927Z,78.80
2017-12-02T02:24:54.389Z,78.70
2017-12-02T02:27:21.852Z,78.80
2017-12-02T02:29:49.312Z,78.80
2017-12-02T02:32:16.774Z,78.90
2017-12-02T02:34:44.245Z,78.90
2017-12-02T02:37:11.708Z,78.80
2017-12-02T02:39:39.180Z,78.90
2017-12-02T02:42:06.639Z,78.90
2017-12-02T02:44:34.121Z,78.70
2017-12-02T02:47:01.577Z,78.50
2017-12-02T02:49:29.047Z,78.70
2017-12-02T02:51:56.512Z,78.80
2017-12-02T02:54:23.989Z,78.80
2017-12-02T02:56:51.450Z,78.80
2017-12-02T02:59:18.923Z,79.30
2017-12-02T03:01:47.133Z,79.00
2017-12-02T03:04:14.600Z,78.90
2017-12-02T03:06:42.053Z,78.80
2017-12-02T03:09:09.518Z,78.80
2017-12-02T03:11:36.965Z,78.70
2017-12-02T03:14:05.190Z,78.60
2017-12-02T03:16:33.396Z,78.70
2017-12-02T03:19:00.844Z,78.70
2017-12-02T03:21:28.296Z,79.50
2017-12-02T03:23:55.759Z,78.60
2017-12-02T03:26:23.203Z,78.70
2017-12-02T03:28:50.657Z,78.70
2017-12-02T03:31:18.127Z,78.70
2017-12-02T03:33:45.596Z,78.70
2017-12-02T03:36:13.042Z,78.60
2017-12-02T03:38:40.500Z,78.50
2017-12-02T03:41:07.963Z,78.60
2017-12-02T03:43:35.427Z,78.70
2017-12-02T03:46:02.898Z,78.60
2017-12-02T03:48:30.353Z,78.60
2017-12-02T03:50:57.827Z,78.70
2017-12-02T03:53:25.296Z,78.70
2017-12-02T03:55:52.759Z,78.70
2017-12-02T03:58:20.228Z,78.70
2017-12-02T04:00:47.698Z,78.60
2017-12-02T04:03:15.160Z,78.60
2017-12-02T04:05:42.627Z,78.50
2017-12-02T04:08:10.099Z,78.50
2017-12-02T04:10:37.563Z,78.40
2017-12-02T04:13:05.015Z,78.50
2017-12-02T04:15:32.487Z,78.50
2017-12-02T04:17:59.934Z,78.50
2017-12-02T04:20:27.405Z,78.50
2017-12-02T04:22:54.862Z,78.50
2017-12-02T04:25:22.326Z,78.60
2017-12-02T04:27:49.783Z,78.50
2017-12-02T04:30:17.257Z,78.50
2017-12-02T04:32:44.710Z,78.60
2017-12-02T04:35:12.183Z,78.70
2017-12-02T04:37:39.655Z,78.70
2017-12-02T04:40:07.122Z,78.60
2017-12-02T04:42:34.588Z,78.60
2017-12-02T04:45:02.049Z,78.70
2017-12-02T04:47:29.511Z,79.10
2017-12-02T04:49:56.979Z,78.70
2017-12-02T04:52:24.440Z,78.80
2017-12-02T04:54:51.903Z,78.70
2017-12-02T04:57:20.132Z,79.30
2017-12-02T04:59:47.596Z,78.90
2017-12-02T05:02:15.062Z,79.00
2017-12-02T05:04:42.532Z,79.00
2017-12-02T05:07:10.014Z,79.00
2017-12-02T05:09:37.474Z,79.00
2017-12-02T05:12:04.935Z,78.90
2017-12-02T05:14:32.392Z,78.90
2017-12-02T05:16:59.849Z,79.00
2017-12-02T05:19:27.302Z,79.10
2017-12-02T05:21:54.774Z,78.90
2017-12-02T05:24:22.990Z,79.20
2017-12-02T05:26:51.221Z,79.40
2017-12-02T05:29:18.665Z,79.20
2017-12-02T05:31:46.126Z,79.30
2017-12-02T05:34:13.584Z,79.30
2017-12-02T05:36:41.034Z,79.40
2017-12-02T05:39:09.244Z,79.30
2017-12-02T05:41:36.706Z,79.30
2017-12-02T05:44:04.166Z,80.20
2017-12-02T05:46:31.628Z,79.50
2017-12-02T05:48:59.091Z,79.60
2017-12-02T05:51:26.552Z,79.50
2017-12-02T05:53:53.995Z,79.60
2017-12-02T05:56:21.454Z,79.40
2017-12-02T05:58:48.920Z,79.50
2017-12-02T06:01:16.411Z,79.60
2017-12-02T06:03:43.863Z,79.60
2017-12-02T06:06:11.335Z,79.70
2017-12-02T06:08:38.798Z,79.70
2017-12-02T06:11:06.262Z,79.70
2017-12-02T06:13:33.718Z,79.70
2017-12-02T06:16:01.200Z,79.70
2017-12-02T06:18:28.663Z,79.90
2017-12-02T06:20:56.114Z,79.90
2017-12-02T06:23:23.589Z,79.90
2017-12-02T06:25:51.048Z,79.90
2017-12-02T06:28:18.527Z,79.80
2017-12-02T06:30:45.988Z,79.90
2017-12-02T06:33:13.447Z,79.80
2017-12-02T06:35:40.916Z,79.80
2017-12-02T06:38:08.384Z,79.80
2017-12-02T06:40:35.835Z,79.80
2017-12-02T06:43:03.313Z,79.90
2017-12-02T06:45:30.774Z,79.90
2017-12-02T06:47:58.246Z,79.90
2017-12-02T06:50:26.495Z,80.00
2017-12-02T06:52:53.958Z,80.00
2017-12-02T06:55:21.415Z,80.10
2017-12-02T06:57:48.862Z,80.00
2017-12-02T07:00:16.324Z,80.10
2017-12-02T07:02:43.787Z,80.00
2017-12-02T07:05:11.244Z,80.00
2017-12-02T07:07:38.715Z,80.00
2017-12-02T07:10:06.172Z,80.10
2017-12-02T07:12:33.635Z,80.10
2017-12-02T07:15:01.096Z,80.20
2017-12-02T07:17:28.571Z,80.20
2017-12-02T07:19:56.819Z,80.30
2017-12-02T07:22:24.299Z,80.20
2017-12-02T07:24:51.779Z,80.20
2017-12-02T07:27:19.244Z,80.20
2017-12-02T07:29:46.687Z,80.20
2017-12-02T07:32:14.148Z,80.40
2017-12-02T07:34:41.611Z,80.50
2017-12-02T07:37:09.139Z,80.50
2017-12-02T07:39:37.354Z,80.60
2017-12-02T07:42:04.832Z,80.50
2017-12-02T07:44:32.292Z,80.60
2017-12-02T07:46:59.759Z,80.60
2017-12-02T07:49:27.228Z,80.60
2017-12-02T07:51:54.693Z,80.70
2017-12-02T07:54:22.167Z,80.60
2017-12-02T07:56:49.630Z,80.60
2017-12-02T07:59:17.088Z,80.60
2017-12-02T08:01:44.551Z,80.50
2017-12-02T08:04:12.016Z,80.60
2017-12-02T08:06:39.475Z,80.60
2017-12-02T08:09:06.941Z,80.70
2017-12-02T08:11:34.416Z,80.70
2017-12-02T08:14:01.888Z,81.40
2017-12-02T08:16:30.128Z,80.70
2017-12-02T08:18:57.609Z,80.70
2017-12-02T08:21:25.070Z,80.60
2017-12-02T08:23:52.545Z,80.70
2017-12-02T08:26:20.005Z,80.70
2017-12-02T08:28:47.461Z,80.70
2017-12-02T08:31:14.938Z,80.60
2017-12-02T08:33:43.201Z,81.20
2017-12-02T08:36:10.673Z,80.70
2017-12-02T08:38:38.156Z,80.70
2017-12-02T08:41:06.379Z,80.80
2017-12-02T08:43:33.863Z,80.80
2017-12-02T08:46:01.335Z,80.80
2017-12-02T08:48:28.818Z,80.80
2017-12-02T08:50:57.060Z,80.80
2017-12-02T08:53:24.527Z,80.80
2017-12-02T08:55:51.993Z,80.80
2017-12-02T08:58:19.482Z,80.90
2017-12-02T09:00:46.953Z,80.90
2017-12-02T09:03:15.195Z,80.80
2017-12-02T09:05:42.663Z,81.00
2017-12-02T09:08:10.118Z,81.00
2017-12-02T09:10:38.379Z,81.00
2017-12-02T09:13:05.836Z,81.00
2017-12-02T09:15:33.403Z,80.90
2017-12-02T09:18:00.869Z,80.90
2017-12-02T09:20:28.432Z,81.00
2017-12-02T09:22:55.895Z,81.10
2017-12-02T09:25:23.458Z,81.00
2017-12-02T09:27:50.920Z,81.00
2017-12-02T09:30:18.394Z,81.10
2017-12-02T09:32:45.856Z,81.10
2017-12-02T09:35:13.331Z,81.10
2017-12-02T09:37:40.784Z,81.20
2017-12-02T09:40:09.015Z,81.20
2017-12-02T09:42:37.276Z,81.20
2017-12-02T09:45:04.735Z,81.10
2017-12-02T09:47:32.184Z,81.30
2017-12-02T09:49:59.657Z,81.30
2017-12-02T09:52:27.125Z,81.30
2017-12-02T09:54:54.616Z,81.30
2017-12-02T09:57:22.850Z,81.40
2017-12-02T09:59:50.332Z,81.40
2017-12-02T10:02:17.789Z,81.30
2017-12-02T10:04:45.259Z,81.30
2017-12-02T10:07:12.726Z,81.30
2017-12-02T10:09:40.194Z,81.10
2017-12-02T10:12:08.436Z,81.40
2017-12-02T10:14:35.911Z,81.40
2017-12-02T10:17:03.363Z,81.40
2017-12-02T10:19:30.831Z,81.40
2017-12-02T10:21:58.281Z,81.40
2017-12-02T10:24:25.743Z,81.50
2017-12-02T10:26:53.219Z,81.50
2017-12-02T10:29:20.703Z,81.60
2017-12-02T10:31:48.150Z,81.60
2017-12-02T10:34:15.614Z,81.60
2017-12-02T10:36:43.078Z,81.60
2017-12-02T10:39:10.547Z,81.70
2017-12-02T10:41:38.019Z,81.70
2017-12-02T10:44:05.477Z,81.60
2017-12-02T10:46:32.958Z,81.70
2017-12-02T10:49:01.200Z,81.80
2017-12-02T10:51:28.668Z,81.60
2017-12-02T10:53:56.132Z,81.70
2017-12-02T10:56:23.612Z,81.70
2017-12-02T10:58:51.078Z,81.70
2017-12-02T11:01:18.539Z,81.80
2017-12-02T11:03:46.771Z,81.80
2017-12-02T11:06:14.257Z,81.80
2017-12-02T11:08:41.722Z,81.70
2017-12-02T11:11:09.195Z,81.70
2017-12-02T11:13:36.652Z,81.70
2017-12-02T11:16:04.114Z,81.70
2017-12-02T11:18:31.567Z,81.70
2017-12-02T11:20:59.042Z,81.80
2017-12-02T11:23:26.500Z,81.80
2017-12-02T11:25:53.987Z,81.80
2017-12-02T11:28:21.439Z,82.00
2017-12-02T11:30:48.912Z,82.00
2017-12-02T11:33:17.133Z,81.90
2017-12-02T11:35:44.615Z,81.90
2017-12-02T11:38:12.081Z,81.80
2017-12-02T11:40:39.561Z,81.70
2017-12-02T11:43:07.038Z,81.80
2017-12-02T11:45:34.507Z,81.90
2017-12-02T11:48:02.731Z,82.10
2017-12-02T11:50:30.188Z,82.80
2017-12-02T11:52:57.668Z,82.10
2017-12-02T11:55:25.140Z,82.00
2017-12-02T11:57:52.606Z,82.00
2017-12-02T12:00:20.092Z,82.00
2017-12-02T12:02:47.559Z,82.00
2017-12-02T12:05:15.023Z,82.00
2017-12-02T12:07:43.251Z,82.00
2017-12-02T12:10:10.708Z,82.00
2017-12-02T12:12:38.189Z,82.00
2017-12-02T12:15:05.652Z,82.00
2017-12-02T12:17:33.119Z,82.00
2017-12-02T12:20:00.575Z,82.00
2017-12-02T12:22:28.039Z,82.00
2017-12-02T12:24:55.518Z,81.90
2017-12-02T12:27:22.997Z,82.00
2017-12-02T12:29:50.456Z,82.00
2017-12-02T12:32:17.970Z,82.00
2017-12-02T12:34:45.455Z,82.00
2017-12-02T12:37:12.967Z,82.00
2017-12-02T12:39:41.194Z,82.10
2017-12-02T12:42:09.439Z,82.10
2017-12-02T12:44:36.903Z,82.10
2017-12-02T12:47:04.386Z,82.10
2017-12-02T12:49:31.856Z,82.10
2017-12-02T12:51:59.332Z,82.20
2017-12-02T12:54:26.814Z,82.10
2017-12-02T12:56:54.288Z,82.00
2017-12-02T12:59:21.752Z,82.00
2017-12-02T13:01:49.988Z,82.00
2017-12-02T13:04:17.538Z,82.00
2017-12-02T13:06:45.104Z,82.00
2017-12-02T13:09:12.564Z,82.00
2017-12-02T13:11:40.036Z,82.00
2017-12-02T13:14:07.519Z,82.00
2017-12-02T13:16:34.984Z,82.10
2017-12-02T13:19:02.473Z,82.00
2017-12-02T13:21:30.713Z,82.10
2017-12-02T13:23:58.176Z,82.00
2017-12-02T13:26:25.648Z,82.00
2017-12-02T13:28:53.125Z,82.00
2017-12-02T13:31:20.597Z,81.80
2017-12-02T13:33:48.063Z,81.90
2017-12-02T13:36:16.277Z,81.50
2017-12-02T13:38:43.755Z,82.00
2017-12-02T13:41:11.219Z,82.00
2017-12-02T13:43:38.691Z,82.00
2017-12-02T13:46:06.165Z,82.00
2017-12-02T13:48:33.655Z,82.00
2017-12-02T13:51:01.115Z,81.90
2017-12-02T13:53:28.591Z,82.00
2017-12-02T13:55:56.821Z,82.00
2017-12-02T13:58:25.059Z,82.00
2017-12-02T14:00:53.287Z,81.90
2017-12-02T14:03:20.752Z,81.80
2017-12-02T14:05:48.208Z,81.90
2017-12-02T14:08:15.669Z,82.00
2017-12-02T14:10:43.905Z,81.60
2017-12-02T14:13:12.125Z,81.90
2017-12-02T14:15:39.680Z,81.90
2017-12-02T14:18:07.146Z,82.00
2017-12-02T14:20:34.603Z,81.90
2017-12-02T14:23:02.076Z,81.90
2017-12-02T14:25:29.632Z,81.80
2017-12-02T14:27:57.095Z,81.80
2017-12-02T14:30:24.658Z,81.90
2017-12-02T14:32:52.122Z,82.00
2017-12-02T14:35:19.582Z,82.00
2017-12-02T14:37:47.040Z,82.00
2017-12-02T14:40:14.524Z,82.00
2017-12-02T14:42:41.976Z,81.90
2017-12-02T14:45:09.446Z,81.90
2017-12-02T14:47:36.916Z,81.90
2017-12-02T14:50:04.383Z,81.90
2017-12-02T14:52:31.842Z,81.80
2017-12-02T14:54:59.324Z,81.80
2017-12-02T14:57:26.777Z,81.70
2017-12-02T14:59:54.250Z,81.80
2017-12-02T15:02:22.531Z,81.80
2017-12-02T15:04:50.004Z,81.80
2017-12-02T15:07:17.469Z,81.80
2017-12-02T15:09:44.931Z,82.00
2017-12-02T15:12:13.156Z,82.30
2017-12-02T15:14:40.635Z,81.80
2017-12-02T15:17:08.186Z,81.80
2017-12-02T15:19:35.633Z,81.80
2017-12-02T15:22:03.104Z,81.80
2017-12-02T15:24:30.563Z,81.70
2017-12-02T15:26:58.015Z,81.70
2017-12-02T15:29:25.541Z,81.80
2017-12-02T15:31:53.044Z,81.80
2017-12-02T15:34:20.506Z,81.90
2017-12-02T15:36:47.988Z,81.80
2017-12-02T15:39:15.464Z,81.90
2017-12-02T15:41:42.936Z,81.80
2017-12-02T15:44:10.474Z,81.80
2017-12-02T15:46:37.928Z,81.80
2017-12-02T15:49:05.396Z,81.80
2017-12-02T15:51:32.854Z,81.80
2017-12-02T15:54:00.332Z,81.80
2017-12-02T15:56:27.812Z,81.80
2017-12-02T15:58:55.267Z,81.80
2017-12-02T16:01:22.758Z,81.80
2017-12-02T16:03:50.228Z,81.70
2017-12-02T16:06:18.485Z,82.40
2017-12-02T16:08:45.925Z,81.70
2017-12-02T16:11:13.402Z,81.70
2017-12-02T16:13:41.637Z,81.60
2017-12-02T16:16:09.136Z,81.60
2017-12-02T16:18:36.616Z,81.60
2017-12-02T16:21:04.105Z,81.60
2017-12-02T16:23:32.331Z,82.10
2017-12-02T16:25:59.805Z,81.60
2017-12-02T16:28:27.280Z,81.60
2017-12-02T16:30:54.755Z,81.70
2017-12-02T16:33:22.231Z,81.60
2017-12-02T16:35:49.703Z,81.60
2017-12-02T16:38:17.168Z,81.50
2017-12-02T16:40:45.411Z,81.60
2017-12-02T16:43:12.871Z,81.50
2017-12-02T16:45:40.347Z,81.60
2017-12-02T16:48:07.814Z,81.70
2017-12-02T16:50:35.285Z,81.60
2017-12-02T16:53:02.746Z,81.70
2017-12-02T16:55:30.222Z,81.70
2017-12-02T16:57:58.448Z,81.80
2017-12-02T17:00:25.910Z,81.60
2017-12-02T17:02:53.379Z,81.70
2017-12-02T17:05:20.851Z,81.70
2017-12-02T17:07:48.310Z,81.60
2017-12-02T17:10:15.812Z,81.60
2017-12-02T17:12:43.266Z,81.70
2017-12-02T17:15:10.761Z,82.40
2017-12-02T17:17:38.244Z,81.70
2017-12-02T17:20:05.719Z,81.70
2017-12-02T17:22:33.204Z,81.70
2017-12-02T17:25:00.686Z,81.60
2017-12-02T17:27:28.159Z,81.70
2017-12-02T17:29:56.403Z,81.60
2017-12-02T17:32:23.888Z,81.60
2017-12-02T17:34:51.375Z,81.70
2017-12-02T17:37:19.684Z,81.60
2017-12-02T17:39:47.508Z,81.60
2017-12-02T17:42:14.964Z,81.70
2017-12-02T17:44:42.436Z,81.50
2017-12-02T17:47:10.678Z,81.50
2017-12-02T17:49:38.222Z,81.50
2017-12-02T17:52:05.684Z,81.50
2017-12-02T17:54:33.132Z,81.50
2017-12-02T17:57:00.624Z,81.60
2017-12-02T17:59:28.085Z,81.60
2017-12-02T18:01:55.556Z,81.60
2017-12-02T18:04:23.015Z,81.60
2017-12-02T18:06:50.523Z,81.60
2017-12-02T18:09:18.733Z,81.70
2017-12-02T18:11:46.211Z,81.70
2017-12-02T18:14:13.679Z,81.60
2017-12-02T18:16:42.059Z,81.50
2017-12-02T18:19:09.519Z,81.40
2017-12-02T18:21:36.994Z,81.40
2017-12-02T18:24:04.465Z,81.50
2017-12-02T18:26:31.940Z,81.40
2017-12-02T18:28:59.412Z,81.40
2017-12-02T18:31:26.881Z,81.40
2017-12-02T18:33:55.111Z,81.50
2017-12-02T18:36:22.695Z,81.50
2017-12-02T18:38:50.211Z,81.40
2017-12-02T18:41:17.696Z,81.40
2017-12-02T18:43:45.234Z,81.40
2017-12-02T18:46:13.464Z,81.40
2017-12-02T18:48:40.927Z,81.40
2017-12-02T18:51:08.376Z,81.30
2017-12-02T18:53:35.839Z,81.40
2017-12-02T18:56:03.307Z,81.40
2017-12-02T18:58:30.768Z,81.40
2017-12-02T19:00:58.217Z,81.40
2017-12-02T19:03:25.706Z,81.40
2017-12-02T19:05:53.174Z,81.30
2017-12-02T19:08:20.639Z,81.30
2017-12-02T19:10:48.103Z,81.30
2017-12-02T19:13:15.580Z,81.40
2017-12-02T19:15:43.817Z,81.60
2017-12-02T19:18:11.286Z,81.40
2017-12-02T19:20:38.748Z,81.40
2017-12-02T19:23:06.215Z,81.40
2017-12-02T19:25:33.672Z,81.50
2017-12-02T19:28:01.908Z,81.50
2017-12-02T19:30:30.148Z,81.50
2017-12-02T19:32:57.618Z,81.50
2017-12-02T19:35:25.096Z,81.40
2017-12-02T19:37:53.351Z,82.30
2017-12-02T19:40:20.818Z,81.50
2017-12-02T19:42:48.303Z,81.50
2017-12-02T19:45:16.527Z,81.50
2017-12-02T19:47:43.989Z,81.40
2017-12-02T19:50:11.454Z,81.50
2017-12-02T19:52:38.914Z,81.50
2017-12-02T19:55:06.480Z,81.50
2017-12-02T19:57:33.946Z,81.50
2017-12-02T20:00:01.532Z,81.60
2017-12-02T20:02:29.004Z,81.50
2017-12-02T20:04:56.467Z,81.50
2017-12-02T20:07:23.943Z,81.40
2017-12-02T20:09:51.460Z,81.40
2017-12-02T20:12:18.923Z,81.40
2017-12-02T20:14:46.390Z,81.40
2017-12-02T20:17:13.854Z,81.40
2017-12-02T20:19:41.411Z,81.40
2017-12-02T20:22:08.858Z,81.40
2017-12-02T20:24:36.311Z,82.10
2017-12-02T20:27:03.754Z,81.40
2017-12-02T20:29:31.985Z,81.40
2017-12-02T20:31:59.457Z,81.40
2017-12-02T20:34:26.924Z,81.40
2017-12-02T20:36:54.382Z,81.40
2017-12-02T20:39:21.849Z,81.40
2017-12-02T20:41:49.293Z,81.40
2017-12-02T20:44:16.768Z,81.30
2017-12-02T20:46:44.224Z,81.30
2017-12-02T20:49:11.703Z,81.40
2017-12-02T20:51:39.164Z,81.40
2017-12-02T20:54:07.439Z,81.50
2017-12-02T20:56:34.895Z,81.40
2017-12-02T20:59:02.368Z,81.40
2017-12-02T21:01:29.828Z,81.40
2017-12-02T21:03:57.311Z,81.40
2017-12-02T21:06:24.782Z,81.50
2017-12-02T21:08:52.251Z,81.30
2017-12-02T21:11:20.488Z,81.40
2017-12-02T21:13:47.979Z,81.40
2017-12-02T21:16:15.452Z,81.40
2017-12-02T21:18:42.966Z,81.40
2017-12-02T21:21:10.460Z,81.40
2017-12-02T21:23:37.890Z,81.40
2017-12-02T21:26:05.352Z,81.40
2017-12-02T21:28:32.829Z,81.50
2017-12-02T21:31:00.273Z,81.50
2017-12-02T21:33:27.742Z,81.50
2017-12-02T21:35:55.215Z,81.50
2017-12-02T21:38:22.667Z,81.50
2017-12-02T21:40:50.126Z,81.50
2017-12-02T21:43:17.604Z,81.50
2017-12-02T21:45:45.078Z,81.50
2017-12-02T21:48:12.535Z,81.40
2017-12-02T21:50:40.016Z,81.40
2017-12-02T21:53:07.530Z,81.40
2017-12-02T21:55:35.007Z,81.40
2017-12-02T21:58:02.474Z,81.40
2017-12-02T22:00:29.946Z,81.50
2017-12-02T22:02:57.405Z,81.40
2017-12-02T22:05:24.864Z,81.40
2017-12-02T22:07:52.309Z,81.40
2017-12-02T22:10:19.793Z,81.50
2017-12-02T22:12:47.239Z,81.50
2017-12-02T22:15:14.713Z,81.40
2017-12-02T22:17:42.179Z,81.50
2017-12-02T22:20:09.645Z,81.40
2017-12-02T22:22:37.115Z,81.40
2017-12-02T22:25:04.574Z,81.40
2017-12-02T22:27:32.037Z,81.40
2017-12-02T22:29:59.506Z,81.40
2017-12-02T22:32:26.973Z,81.40
2017-12-02T22:34:54.518Z,81.40
2017-12-02T22:37:21.972Z,81.40
2017-12-02T22:39:49.454Z,81.30
2017-12-02T22:42:16.907Z,81.40
2017-12-02T22:44:44.583Z,81.40
2017-12-02T22:47:12.215Z,81.40
2017-12-02T22:49:39.874Z,81.30
2017-12-02T22:52:07.335Z,81.30
2017-12-02T22:54:34.800Z,81.30
2017-12-02T22:57:02.279Z,81.30
2017-12-02T22:59:29.743Z,81.30
2017-12-02T23:01:57.211Z,81.20
2017-12-02T23:04:27.329Z,81.30
2017-12-02T23:06:54.772Z,81.20
2017-12-02T23:09:22.226Z,81.20
2017-12-02T23:11:49.686Z,81.20
2017-12-02T23:14:17.899Z,81.00
2017-12-02T23:16:45.357Z,81.00
2017-12-02T23:21:40.281Z,80.60
2017-12-02T23:24:08.468Z,80.80
2017-12-02T23:26:35.935Z,80.80
2017-12-02T23:29:03.395Z,80.70
2017-12-02T23:31:30.849Z,80.70
2017-12-02T23:33:58.311Z,80.70
2017-12-02T23:36:25.804Z,80.60
2017-12-02T23:38:53.266Z,80.60
2017-12-02T23:41:20.724Z,80.60
2017-12-02T23:43:48.173Z,80.50
2017-12-02T23:46:16.388Z,80.60
2017-12-02T23:48:43.841Z,80.60
2017-12-02T23:51:11.294Z,80.90
2017-12-02T23:53:38.778Z,80.30
2017-12-02T23:56:07.007Z,81.20
2017-12-02T23:58:34.460Z,80.30
